sensor_id;sensor_type;location;lat;lon;timestamp;P1;durP1;ratioP1;P2;durP2;ratioP2
71715;SDS011;59568;52.128;5.434;2022-09-09T00:01:51;1.10;;;0.40;;
71715;SDS011;59568;52.128;5.434;2022-09-09T00:04:28;2.03;;;0.30;;
71715;SDS011;59568;52.128;5.434;2022-09-09T00:09:58;0.68;;;0.43;;
71715;SDS011;59568;52.128;5.434;2022-09-09T00:12:34;1.27;;;0.40;;
71715;SDS011;59568;52.128;5.434;2022-09-09T00:15:13;1.55;;;0.32;;
71715;SDS011;59568;52.128;5.434;2022-09-09T00:20:28;1.38;;;0.30;;
71715;SDS011;59568;52.128;5.434;2022-09-09T00:23:14;1.08;;;0.40;;
71715;SDS011;59568;52.128;5.434;2022-09-09T00:26:01;1.07;;;0.40;;
71715;SDS011;59568;52.128;5.434;2022-09-09T00:28:38;2.25;;;0.57;;
71715;SDS011;59568;52.128;5.434;2022-09-09T00:31:13;1.08;;;0.30;;
71715;SDS011;59568;52.128;5.434;2022-09-09T00:33:46;0.73;;;0.40;;
71715;SDS011;59568;52.128;5.434;2022-09-09T00:36:17;3.65;;;1.23;;
71715;SDS011;59568;52.128;5.434;2022-09-09T00:38:49;1.10;;;0.40;;
71715;SDS011;59568;52.128;5.434;2022-09-09T00:44:44;2.13;;;0.82;;
71715;SDS011;59568;52.128;5.434;2022-09-09T00:49:47;2.17;;;1.10;;
71715;SDS011;59568;52.128;5.434;2022-09-09T00:57:36;3.67;;;1.08;;
71715;SDS011;59568;52.128;5.434;2022-09-09T01:00:23;2.03;;;0.82;;
71715;SDS011;59568;52.128;5.434;2022-09-09T01:03:15;2.75;;;1.10;;
71715;SDS011;59568;52.128;5.434;2022-09-09T01:11:31;2.33;;;1.25;;
71715;SDS011;59568;52.128;5.434;2022-09-09T01:14:29;2.35;;;1.10;;
71715;SDS011;59568;52.128;5.434;2022-09-09T01:17:00;2.95;;;0.93;;
71715;SDS011;59568;52.128;5.434;2022-09-09T01:19:45;3.53;;;1.10;;
71715;SDS011;59568;52.128;5.434;2022-09-09T01:22:35;3.88;;;0.98;;
71715;SDS011;59568;52.128;5.434;2022-09-09T01:28:00;2.00;;;1.00;;
71715;SDS011;59568;52.128;5.434;2022-09-09T01:30:31;2.53;;;0.93;;
71715;SDS011;59568;52.128;5.434;2022-09-09T01:33:01;2.47;;;1.13;;
71715;SDS011;59568;52.128;5.434;2022-09-09T01:35:36;2.50;;;1.20;;
71715;SDS011;59568;52.128;5.434;2022-09-09T01:38:10;4.32;;;1.30;;
71715;SDS011;59568;52.128;5.434;2022-09-09T01:40:37;3.40;;;1.20;;
71715;SDS011;59568;52.128;5.434;2022-09-09T01:43:05;3.75;;;1.30;;
71715;SDS011;59568;52.128;5.434;2022-09-09T01:45:33;4.00;;;1.50;;
71715;SDS011;59568;52.128;5.434;2022-09-09T01:48:00;3.10;;;1.55;;
71715;SDS011;59568;52.128;5.434;2022-09-09T01:50:29;2.58;;;1.20;;
71715;SDS011;59568;52.128;5.434;2022-09-09T01:52:59;2.72;;;1.25;;
71715;SDS011;59568;52.128;5.434;2022-09-09T01:55:33;3.15;;;1.63;;
71715;SDS011;59568;52.128;5.434;2022-09-09T01:58:29;2.63;;;1.50;;
71715;SDS011;59568;52.128;5.434;2022-09-09T02:04:03;4.05;;;1.63;;
71715;SDS011;59568;52.128;5.434;2022-09-09T02:06:40;3.72;;;1.63;;
71715;SDS011;59568;52.128;5.434;2022-09-09T02:09:07;2.30;;;1.40;;
71715;SDS011;59568;52.128;5.434;2022-09-09T02:11:39;4.13;;;1.23;;
71715;SDS011;59568;52.128;5.434;2022-09-09T02:14:10;5.10;;;1.50;;
71715;SDS011;59568;52.128;5.434;2022-09-09T02:19:31;3.25;;;1.33;;
71715;SDS011;59568;52.128;5.434;2022-09-09T02:22:01;3.55;;;1.23;;
71715;SDS011;59568;52.128;5.434;2022-09-09T02:24:33;2.30;;;1.30;;
71715;SDS011;59568;52.128;5.434;2022-09-09T02:27:03;2.58;;;1.42;;
71715;SDS011;59568;52.128;5.434;2022-09-09T02:29:36;3.40;;;1.33;;
71715;SDS011;59568;52.128;5.434;2022-09-09T02:32:11;2.70;;;1.27;;
71715;SDS011;59568;52.128;5.434;2022-09-09T02:35:03;2.85;;;1.38;;
71715;SDS011;59568;52.128;5.434;2022-09-09T02:37:33;2.13;;;1.33;;
71715;SDS011;59568;52.128;5.434;2022-09-09T02:40:06;4.32;;;1.70;;
71715;SDS011;59568;52.128;5.434;2022-09-09T02:42:40;3.20;;;1.60;;
71715;SDS011;59568;52.128;5.434;2022-09-09T02:45:08;2.13;;;1.02;;
71715;SDS011;59568;52.128;5.434;2022-09-09T02:50:32;2.67;;;1.10;;
71715;SDS011;59568;52.128;5.434;2022-09-09T02:53:17;3.40;;;1.45;;
71715;SDS011;59568;52.128;5.434;2022-09-09T02:55:48;3.33;;;1.33;;
71715;SDS011;59568;52.128;5.434;2022-09-09T02:58:21;3.53;;;1.60;;
71715;SDS011;59568;52.128;5.434;2022-09-09T03:00:49;2.42;;;1.52;;
71715;SDS011;59568;52.128;5.434;2022-09-09T03:03:17;3.00;;;1.50;;
71715;SDS011;59568;52.128;5.434;2022-09-09T03:05:45;2.65;;;1.13;;
71715;SDS011;59568;52.128;5.434;2022-09-09T03:08:12;2.25;;;1.55;;
71715;SDS011;59568;52.128;5.434;2022-09-09T03:10:39;3.83;;;1.40;;
71715;SDS011;59568;52.128;5.434;2022-09-09T03:13:06;2.65;;;1.80;;
71715;SDS011;59568;52.128;5.434;2022-09-09T03:15:34;2.87;;;1.57;;
71715;SDS011;59568;52.128;5.434;2022-09-09T03:18:01;3.15;;;1.58;;
71715;SDS011;59568;52.128;5.434;2022-09-09T03:20:28;4.40;;;2.40;;
71715;SDS011;59568;52.128;5.434;2022-09-09T03:22:56;4.82;;;2.00;;
71715;SDS011;59568;52.128;5.434;2022-09-09T03:25:25;2.95;;;1.90;;
71715;SDS011;59568;52.128;5.434;2022-09-09T03:27:53;5.37;;;2.27;;
71715;SDS011;59568;52.128;5.434;2022-09-09T03:30:25;3.25;;;2.20;;
71715;SDS011;59568;52.128;5.434;2022-09-09T03:32:53;4.05;;;2.30;;
71715;SDS011;59568;52.128;5.434;2022-09-09T03:35:21;2.70;;;1.85;;
71715;SDS011;59568;52.128;5.434;2022-09-09T03:37:48;2.15;;;1.40;;
71715;SDS011;59568;52.128;5.434;2022-09-09T03:40:15;3.07;;;1.80;;
71715;SDS011;59568;52.128;5.434;2022-09-09T03:42:42;3.83;;;2.03;;
71715;SDS011;59568;52.128;5.434;2022-09-09T03:45:11;3.53;;;2.28;;
71715;SDS011;59568;52.128;5.434;2022-09-09T03:47:38;4.47;;;2.22;;
71715;SDS011;59568;52.128;5.434;2022-09-09T03:50:05;4.18;;;2.05;;
71715;SDS011;59568;52.128;5.434;2022-09-09T03:52:36;4.17;;;2.00;;
71715;SDS011;59568;52.128;5.434;2022-09-09T03:55:04;5.50;;;2.60;;
71715;SDS011;59568;52.128;5.434;2022-09-09T03:57:32;3.25;;;2.17;;
71715;SDS011;59568;52.128;5.434;2022-09-09T04:00:05;5.55;;;2.20;;
71715;SDS011;59568;52.128;5.434;2022-09-09T04:02:33;4.35;;;2.30;;
71715;SDS011;59568;52.128;5.434;2022-09-09T04:05:00;3.43;;;1.90;;
71715;SDS011;59568;52.128;5.434;2022-09-09T04:07:27;6.07;;;2.45;;
71715;SDS011;59568;52.128;5.434;2022-09-09T04:09:54;4.00;;;2.30;;
71715;SDS011;59568;52.128;5.434;2022-09-09T04:12:21;4.57;;;1.80;;
71715;SDS011;59568;52.128;5.434;2022-09-09T04:14:48;3.08;;;1.75;;
71715;SDS011;59568;52.128;5.434;2022-09-09T04:17:15;3.03;;;1.90;;
71715;SDS011;59568;52.128;5.434;2022-09-09T04:19:42;4.55;;;2.35;;
71715;SDS011;59568;52.128;5.434;2022-09-09T04:22:09;4.80;;;2.05;;
71715;SDS011;59568;52.128;5.434;2022-09-09T04:24:36;3.22;;;2.05;;
71715;SDS011;59568;52.128;5.434;2022-09-09T04:27:03;4.43;;;2.33;;
71715;SDS011;59568;52.128;5.434;2022-09-09T04:29:29;4.43;;;2.30;;
71715;SDS011;59568;52.128;5.434;2022-09-09T04:31:56;5.28;;;2.10;;
71715;SDS011;59568;52.128;5.434;2022-09-09T04:34:23;3.85;;;2.08;;
71715;SDS011;59568;52.128;5.434;2022-09-09T04:36:50;4.07;;;2.30;;
71715;SDS011;59568;52.128;5.434;2022-09-09T04:39:18;5.95;;;2.22;;
71715;SDS011;59568;52.128;5.434;2022-09-09T04:41:46;5.23;;;2.20;;
71715;SDS011;59568;52.128;5.434;2022-09-09T04:44:13;3.75;;;1.85;;
71715;SDS011;59568;52.128;5.434;2022-09-09T04:46:40;4.82;;;2.00;;
71715;SDS011;59568;52.128;5.434;2022-09-09T04:49:07;4.07;;;2.17;;
71715;SDS011;59568;52.128;5.434;2022-09-09T04:51:40;4.93;;;1.73;;
71715;SDS011;59568;52.128;5.434;2022-09-09T04:54:07;3.40;;;1.93;;
71715;SDS011;59568;52.128;5.434;2022-09-09T04:56:34;5.57;;;2.03;;
71715;SDS011;59568;52.128;5.434;2022-09-09T04:59:00;4.00;;;1.60;;
71715;SDS011;59568;52.128;5.434;2022-09-09T05:01:29;4.53;;;1.70;;
71715;SDS011;59568;52.128;5.434;2022-09-09T05:03:56;3.47;;;1.58;;
71715;SDS011;59568;52.128;5.434;2022-09-09T05:06:23;5.17;;;2.23;;
71715;SDS011;59568;52.128;5.434;2022-09-09T05:08:50;4.45;;;1.80;;
71715;SDS011;59568;52.128;5.434;2022-09-09T05:13:44;3.88;;;1.38;;
71715;SDS011;59568;52.128;5.434;2022-09-09T05:16:12;5.00;;;2.25;;
71715;SDS011;59568;52.128;5.434;2022-09-09T05:18:40;2.90;;;1.73;;
71715;SDS011;59568;52.128;5.434;2022-09-09T05:21:09;5.15;;;1.75;;
71715;SDS011;59568;52.128;5.434;2022-09-09T05:23:37;5.85;;;1.52;;
71715;SDS011;59568;52.128;5.434;2022-09-09T05:26:05;8.07;;;2.08;;
71715;SDS011;59568;52.128;5.434;2022-09-09T05:28:34;5.38;;;1.88;;
71715;SDS011;59568;52.128;5.434;2022-09-09T05:31:04;3.47;;;1.23;;
71715;SDS011;59568;52.128;5.434;2022-09-09T05:33:35;3.33;;;1.52;;
71715;SDS011;59568;52.128;5.434;2022-09-09T05:36:03;4.95;;;1.77;;
71715;SDS011;59568;52.128;5.434;2022-09-09T05:38:32;5.50;;;1.85;;
71715;SDS011;59568;52.128;5.434;2022-09-09T05:41:00;5.43;;;1.63;;
71715;SDS011;59568;52.128;5.434;2022-09-09T05:43:29;3.40;;;1.30;;
71715;SDS011;59568;52.128;5.434;2022-09-09T05:46:00;4.78;;;1.60;;
71715;SDS011;59568;52.128;5.434;2022-09-09T05:48:35;2.75;;;1.55;;
71715;SDS011;59568;52.128;5.434;2022-09-09T05:51:07;3.95;;;1.27;;
71715;SDS011;59568;52.128;5.434;2022-09-09T05:53:36;4.75;;;1.92;;
71715;SDS011;59568;52.128;5.434;2022-09-09T05:56:04;3.50;;;2.30;;
71715;SDS011;59568;52.128;5.434;2022-09-09T05:58:37;6.88;;;2.33;;
71715;SDS011;59568;52.128;5.434;2022-09-09T06:01:05;3.28;;;1.88;;
71715;SDS011;59568;52.128;5.434;2022-09-09T06:03:37;3.45;;;1.88;;
71715;SDS011;59568;52.128;5.434;2022-09-09T06:06:07;6.15;;;2.00;;
71715;SDS011;59568;52.128;5.434;2022-09-09T06:08:36;7.87;;;2.07;;
71715;SDS011;59568;52.128;5.434;2022-09-09T06:11:06;5.63;;;1.40;;
71715;SDS011;59568;52.128;5.434;2022-09-09T06:13:34;3.40;;;1.73;;
71715;SDS011;59568;52.128;5.434;2022-09-09T06:16:03;3.72;;;1.52;;
71715;SDS011;59568;52.128;5.434;2022-09-09T06:18:31;6.30;;;2.03;;
71715;SDS011;59568;52.128;5.434;2022-09-09T06:20:58;8.63;;;2.53;;
71715;SDS011;59568;52.128;5.434;2022-09-09T06:23:27;7.22;;;2.65;;
71715;SDS011;59568;52.128;5.434;2022-09-09T06:26:11;6.53;;;1.67;;
71715;SDS011;59568;52.128;5.434;2022-09-09T06:28:38;5.90;;;2.40;;
71715;SDS011;59568;52.128;5.434;2022-09-09T06:31:06;8.45;;;2.10;;
71715;SDS011;59568;52.128;5.434;2022-09-09T06:33:36;6.33;;;1.77;;
71715;SDS011;59568;52.128;5.434;2022-09-09T06:36:10;6.05;;;2.15;;
71715;SDS011;59568;52.128;5.434;2022-09-09T06:38:38;5.63;;;1.52;;
71715;SDS011;59568;52.128;5.434;2022-09-09T06:41:05;9.10;;;1.92;;
71715;SDS011;59568;52.128;5.434;2022-09-09T06:43:32;8.15;;;1.45;;
71715;SDS011;59568;52.128;5.434;2022-09-09T06:46:00;3.83;;;1.70;;
71715;SDS011;59568;52.128;5.434;2022-09-09T06:48:29;5.07;;;1.73;;
71715;SDS011;59568;52.128;5.434;2022-09-09T06:51:03;6.97;;;1.45;;
71715;SDS011;59568;52.128;5.434;2022-09-09T06:53:32;3.05;;;1.20;;
71715;SDS011;59568;52.128;5.434;2022-09-09T06:56:01;5.63;;;1.30;;
71715;SDS011;59568;52.128;5.434;2022-09-09T06:58:43;4.23;;;1.27;;
71715;SDS011;59568;52.128;5.434;2022-09-09T07:01:12;4.15;;;1.10;;
71715;SDS011;59568;52.128;5.434;2022-09-09T07:03:41;5.80;;;1.33;;
71715;SDS011;59568;52.128;5.434;2022-09-09T07:06:13;5.63;;;1.40;;
71715;SDS011;59568;52.128;5.434;2022-09-09T07:08:43;5.25;;;1.25;;
71715;SDS011;59568;52.128;5.434;2022-09-09T07:11:22;4.70;;;1.00;;
71715;SDS011;59568;52.128;5.434;2022-09-09T07:13:50;4.68;;;1.00;;
71715;SDS011;59568;52.128;5.434;2022-09-09T07:16:18;4.30;;;1.25;;
71715;SDS011;59568;52.128;5.434;2022-09-09T07:18:46;6.22;;;1.45;;
71715;SDS011;59568;52.128;5.434;2022-09-09T07:21:14;6.72;;;1.30;;
71715;SDS011;59568;52.128;5.434;2022-09-09T07:23:41;7.03;;;1.30;;
71715;SDS011;59568;52.128;5.434;2022-09-09T07:26:12;4.00;;;1.30;;
71715;SDS011;59568;52.128;5.434;2022-09-09T07:28:40;6.90;;;1.08;;
71715;SDS011;59568;52.128;5.434;2022-09-09T07:31:18;8.75;;;1.15;;
71715;SDS011;59568;52.128;5.434;2022-09-09T07:33:47;7.53;;;1.20;;
71715;SDS011;59568;52.128;5.434;2022-09-09T07:36:19;6.10;;;1.00;;
71715;SDS011;59568;52.128;5.434;2022-09-09T07:38:58;8.48;;;1.30;;
71715;SDS011;59568;52.128;5.434;2022-09-09T07:41:37;5.78;;;1.17;;
71715;SDS011;59568;52.128;5.434;2022-09-09T07:44:07;5.70;;;1.10;;
71715;SDS011;59568;52.128;5.434;2022-09-09T07:46:38;7.72;;;1.40;;
71715;SDS011;59568;52.128;5.434;2022-09-09T07:49:06;4.30;;;1.37;;
71715;SDS011;59568;52.128;5.434;2022-09-09T07:51:34;5.38;;;1.00;;
71715;SDS011;59568;52.128;5.434;2022-09-09T07:54:05;5.43;;;1.33;;
71715;SDS011;59568;52.128;5.434;2022-09-09T07:56:35;4.63;;;1.00;;
71715;SDS011;59568;52.128;5.434;2022-09-09T07:59:05;4.55;;;1.40;;
71715;SDS011;59568;52.128;5.434;2022-09-09T08:01:37;4.73;;;1.30;;
71715;SDS011;59568;52.128;5.434;2022-09-09T08:04:07;6.57;;;1.45;;
71715;SDS011;59568;52.128;5.434;2022-09-09T08:06:39;5.50;;;1.50;;
71715;SDS011;59568;52.128;5.434;2022-09-09T08:09:08;3.63;;;0.95;;
71715;SDS011;59568;52.128;5.434;2022-09-09T08:11:36;6.72;;;1.23;;
71715;SDS011;59568;52.128;5.434;2022-09-09T08:14:05;5.07;;;1.40;;
71715;SDS011;59568;52.128;5.434;2022-09-09T08:16:38;6.45;;;1.00;;
71715;SDS011;59568;52.128;5.434;2022-09-09T08:19:10;5.78;;;1.40;;
71715;SDS011;59568;52.128;5.434;2022-09-09T08:21:38;4.85;;;1.20;;
71715;SDS011;59568;52.128;5.434;2022-09-09T08:24:06;3.15;;;1.00;;
71715;SDS011;59568;52.128;5.434;2022-09-09T08:26:35;7.73;;;1.80;;
71715;SDS011;59568;52.128;5.434;2022-09-09T08:29:05;5.57;;;1.10;;
71715;SDS011;59568;52.128;5.434;2022-09-09T08:31:36;7.03;;;1.15;;
71715;SDS011;59568;52.128;5.434;2022-09-09T08:34:05;3.97;;;0.70;;
71715;SDS011;59568;52.128;5.434;2022-09-09T08:36:34;3.58;;;1.05;;
71715;SDS011;59568;52.128;5.434;2022-09-09T08:39:05;6.33;;;1.33;;
71715;SDS011;59568;52.128;5.434;2022-09-09T08:44:47;5.70;;;1.02;;
71715;SDS011;59568;52.128;5.434;2022-09-09T08:47:35;10.10;;;1.10;;
71715;SDS011;59568;52.128;5.434;2022-09-09T08:50:26;4.00;;;1.10;;
71715;SDS011;59568;52.128;5.434;2022-09-09T08:55:45;3.28;;;0.85;;
71715;SDS011;59568;52.128;5.434;2022-09-09T08:58:16;6.05;;;0.98;;
71715;SDS011;59568;52.128;5.434;2022-09-09T09:03:23;9.93;;;1.75;;
71715;SDS011;59568;52.128;5.434;2022-09-09T09:06:00;8.43;;;0.77;;
71715;SDS011;59568;52.128;5.434;2022-09-09T09:08:30;4.10;;;1.08;;
71715;SDS011;59568;52.128;5.434;2022-09-09T09:11:19;6.80;;;1.50;;
71715;SDS011;59568;52.128;5.434;2022-09-09T09:16:23;3.63;;;0.95;;
71715;SDS011;59568;52.128;5.434;2022-09-09T09:19:15;3.77;;;0.90;;
71715;SDS011;59568;52.128;5.434;2022-09-09T09:21:44;6.13;;;0.90;;
71715;SDS011;59568;52.128;5.434;2022-09-09T09:24:36;5.60;;;0.98;;
71715;SDS011;59568;52.128;5.434;2022-09-09T09:30:20;6.25;;;1.00;;
71715;SDS011;59568;52.128;5.434;2022-09-09T09:33:06;7.07;;;0.97;;
71715;SDS011;59568;52.128;5.434;2022-09-09T09:35:42;3.78;;;1.10;;
71715;SDS011;59568;52.128;5.434;2022-09-09T09:38:25;5.93;;;0.82;;
71715;SDS011;59568;52.128;5.434;2022-09-09T09:41:14;5.68;;;0.90;;
71715;SDS011;59568;52.128;5.434;2022-09-09T09:43:41;4.50;;;1.00;;
71715;SDS011;59568;52.128;5.434;2022-09-09T09:46:19;5.53;;;0.90;;
71715;SDS011;59568;52.128;5.434;2022-09-09T09:49:02;5.18;;;0.93;;
71715;SDS011;59568;52.128;5.434;2022-09-09T09:51:32;2.80;;;0.73;;
71715;SDS011;59568;52.128;5.434;2022-09-09T09:54:08;5.75;;;0.77;;
71715;SDS011;59568;52.128;5.434;2022-09-09T09:56:45;6.90;;;1.60;;
71715;SDS011;59568;52.128;5.434;2022-09-09T10:04:39;5.10;;;0.90;;
71715;SDS011;59568;52.128;5.434;2022-09-09T10:07:26;5.15;;;1.02;;
71715;SDS011;59568;52.128;5.434;2022-09-09T10:09:53;6.07;;;1.23;;
71715;SDS011;59568;52.128;5.434;2022-09-09T10:20:40;4.68;;;0.90;;
71715;SDS011;59568;52.128;5.434;2022-09-09T10:26:01;5.73;;;1.20;;
71715;SDS011;59568;52.128;5.434;2022-09-09T10:31:38;7.93;;;1.38;;
71715;SDS011;59568;52.128;5.434;2022-09-09T10:37:41;4.20;;;1.20;;
71715;SDS011;59568;52.128;5.434;2022-09-09T10:43:12;5.45;;;1.08;;
71715;SDS011;59568;52.128;5.434;2022-09-09T10:45:53;3.17;;;0.90;;
71715;SDS011;59568;52.128;5.434;2022-09-09T10:54:22;5.70;;;0.80;;
71715;SDS011;59568;52.128;5.434;2022-09-09T10:56:59;6.38;;;1.38;;
71715;SDS011;59568;52.128;5.434;2022-09-09T10:59:51;3.63;;;0.85;;
71715;SDS011;59568;52.128;5.434;2022-09-09T11:02:30;4.18;;;1.00;;
71715;SDS011;59568;52.128;5.434;2022-09-09T11:10:11;2.85;;;0.70;;
71715;SDS011;59568;52.128;5.434;2022-09-09T11:12:46;4.47;;;1.23;;
71715;SDS011;59568;52.128;5.434;2022-09-09T11:15:23;6.07;;;0.90;;
71715;SDS011;59568;52.128;5.434;2022-09-09T11:17:58;4.88;;;1.20;;
71715;SDS011;59568;52.128;5.434;2022-09-09T11:20:28;4.17;;;0.87;;
71715;SDS011;59568;52.128;5.434;2022-09-09T11:23:05;3.63;;;0.90;;
71715;SDS011;59568;52.128;5.434;2022-09-09T11:25:45;5.55;;;1.00;;
71715;SDS011;59568;52.128;5.434;2022-09-09T11:28:25;5.32;;;0.90;;
71715;SDS011;59568;52.128;5.434;2022-09-09T11:40:26;4.03;;;0.77;;
71715;SDS011;59568;52.128;5.434;2022-09-09T11:43:05;6.20;;;1.20;;
71715;SDS011;59568;52.128;5.434;2022-09-09T11:45:35;5.88;;;1.00;;
71715;SDS011;59568;52.128;5.434;2022-09-09T11:48:03;5.47;;;0.73;;
71715;SDS011;59568;52.128;5.434;2022-09-09T11:50:33;4.38;;;0.80;;
71715;SDS011;59568;52.128;5.434;2022-09-09T11:55:40;8.45;;;1.00;;
71715;SDS011;59568;52.128;5.434;2022-09-09T12:00:38;4.40;;;0.80;;
71715;SDS011;59568;52.128;5.434;2022-09-09T12:03:31;5.45;;;1.10;;
71715;SDS011;59568;52.128;5.434;2022-09-09T12:06:14;4.00;;;0.95;;
71715;SDS011;59568;52.128;5.434;2022-09-09T12:08:48;5.63;;;1.17;;
71715;SDS011;59568;52.128;5.434;2022-09-09T12:11:25;6.32;;;1.42;;
71715;SDS011;59568;52.128;5.434;2022-09-09T12:13:57;5.03;;;0.80;;
71715;SDS011;59568;52.128;5.434;2022-09-09T12:16:30;5.03;;;1.17;;
71715;SDS011;59568;52.128;5.434;2022-09-09T12:24:49;4.82;;;1.00;;
71715;SDS011;59568;52.128;5.434;2022-09-09T12:27:49;2.83;;;1.03;;
71715;SDS011;59568;52.128;5.434;2022-09-09T12:30:29;3.85;;;1.23;;
71715;SDS011;59568;52.128;5.434;2022-09-09T12:33:16;6.03;;;1.30;;
71715;SDS011;59568;52.128;5.434;2022-09-09T12:35:45;4.65;;;1.08;;
71715;SDS011;59568;52.128;5.434;2022-09-09T12:38:22;3.65;;;1.48;;
71715;SDS011;59568;52.128;5.434;2022-09-09T12:40:59;2.83;;;1.10;;
71715;SDS011;59568;52.128;5.434;2022-09-09T12:43:27;4.85;;;1.23;;
71715;SDS011;59568;52.128;5.434;2022-09-09T12:45:56;3.03;;;1.35;;
71715;SDS011;59568;52.128;5.434;2022-09-09T12:48:29;5.20;;;1.40;;
71715;SDS011;59568;52.128;5.434;2022-09-09T12:51:01;5.10;;;1.30;;
71715;SDS011;59568;52.128;5.434;2022-09-09T12:56:06;6.03;;;1.10;;
71715;SDS011;59568;52.128;5.434;2022-09-09T12:58:36;4.22;;;0.90;;
71715;SDS011;59568;52.128;5.434;2022-09-09T13:01:05;4.28;;;1.40;;
71715;SDS011;59568;52.128;5.434;2022-09-09T13:03:33;5.20;;;0.90;;
71715;SDS011;59568;52.128;5.434;2022-09-09T13:06:10;2.57;;;1.10;;
71715;SDS011;59568;52.128;5.434;2022-09-09T13:08:40;4.65;;;0.93;;
71715;SDS011;59568;52.128;5.434;2022-09-09T13:11:09;2.38;;;0.90;;
71715;SDS011;59568;52.128;5.434;2022-09-09T13:13:41;3.53;;;0.80;;
71715;SDS011;59568;52.128;5.434;2022-09-09T13:16:22;2.42;;;1.10;;
71715;SDS011;59568;52.128;5.434;2022-09-09T13:19:06;6.40;;;1.07;;
71715;SDS011;59568;52.128;5.434;2022-09-09T13:21:38;4.28;;;1.10;;
71715;SDS011;59568;52.128;5.434;2022-09-09T13:24:07;4.00;;;1.23;;
71715;SDS011;59568;52.128;5.434;2022-09-09T13:29:29;3.92;;;1.10;;
71715;SDS011;59568;52.128;5.434;2022-09-09T13:32:12;3.27;;;0.97;;
71715;SDS011;59568;52.128;5.434;2022-09-09T13:37:36;3.35;;;0.70;;
71715;SDS011;59568;52.128;5.434;2022-09-09T13:40:05;5.15;;;1.10;;
71715;SDS011;59568;52.128;5.434;2022-09-09T13:42:34;4.45;;;1.13;;
71715;SDS011;59568;52.128;5.434;2022-09-09T13:45:14;2.20;;;0.87;;
71715;SDS011;59568;52.128;5.434;2022-09-09T13:47:49;4.57;;;1.40;;
71715;SDS011;59568;52.128;5.434;2022-09-09T13:52:49;4.72;;;1.02;;
71715;SDS011;59568;52.128;5.434;2022-09-09T13:55:21;3.53;;;0.93;;
71715;SDS011;59568;52.128;5.434;2022-09-09T13:57:50;4.17;;;0.90;;
71715;SDS011;59568;52.128;5.434;2022-09-09T14:00:18;4.07;;;1.10;;
71715;SDS011;59568;52.128;5.434;2022-09-09T14:02:47;2.67;;;0.85;;
71715;SDS011;59568;52.128;5.434;2022-09-09T14:05:16;4.15;;;1.17;;
71715;SDS011;59568;52.128;5.434;2022-09-09T14:07:44;3.60;;;1.25;;
71715;SDS011;59568;52.128;5.434;2022-09-09T14:10:15;3.93;;;0.97;;
71715;SDS011;59568;52.128;5.434;2022-09-09T14:12:43;4.88;;;1.13;;
71715;SDS011;59568;52.128;5.434;2022-09-09T14:15:10;4.10;;;1.38;;
71715;SDS011;59568;52.128;5.434;2022-09-09T14:17:38;4.63;;;1.17;;
71715;SDS011;59568;52.128;5.434;2022-09-09T14:20:06;4.00;;;2.22;;
71715;SDS011;59568;52.128;5.434;2022-09-09T14:22:35;4.30;;;1.60;;
71715;SDS011;59568;52.128;5.434;2022-09-09T14:25:03;4.78;;;1.40;;
71715;SDS011;59568;52.128;5.434;2022-09-09T14:27:30;5.28;;;0.93;;
71715;SDS011;59568;52.128;5.434;2022-09-09T14:29:57;2.95;;;0.90;;
71715;SDS011;59568;52.128;5.434;2022-09-09T14:32:26;6.05;;;1.40;;
71715;SDS011;59568;52.128;5.434;2022-09-09T14:34:53;5.23;;;1.20;;
71715;SDS011;59568;52.128;5.434;2022-09-09T14:37:20;3.58;;;1.23;;
71715;SDS011;59568;52.128;5.434;2022-09-09T14:39:47;2.47;;;1.10;;
71715;SDS011;59568;52.128;5.434;2022-09-09T14:42:17;6.95;;;1.48;;
71715;SDS011;59568;52.128;5.434;2022-09-09T14:44:44;3.25;;;1.20;;
71715;SDS011;59568;52.128;5.434;2022-09-09T14:47:11;3.23;;;1.00;;
71715;SDS011;59568;52.128;5.434;2022-09-09T14:49:38;1.58;;;0.90;;
71715;SDS011;59568;52.128;5.434;2022-09-09T14:52:09;3.00;;;1.50;;
71715;SDS011;59568;52.128;5.434;2022-09-09T14:54:36;9.32;;;1.38;;
71715;SDS011;59568;52.128;5.434;2022-09-09T14:57:02;2.72;;;1.02;;
71715;SDS011;59568;52.128;5.434;2022-09-09T14:59:29;5.83;;;1.50;;
71715;SDS011;59568;52.128;5.434;2022-09-09T15:01:56;3.70;;;1.30;;
71715;SDS011;59568;52.128;5.434;2022-09-09T15:04:23;3.00;;;1.33;;
71715;SDS011;59568;52.128;5.434;2022-09-09T15:06:50;4.88;;;1.10;;
71715;SDS011;59568;52.128;5.434;2022-09-09T15:09:19;3.33;;;1.45;;
71715;SDS011;59568;52.128;5.434;2022-09-09T15:11:46;5.37;;;1.80;;
71715;SDS011;59568;52.128;5.434;2022-09-09T15:14:13;4.75;;;1.58;;
71715;SDS011;59568;52.128;5.434;2022-09-09T15:16:40;5.13;;;2.22;;
71715;SDS011;59568;52.128;5.434;2022-09-09T15:19:07;5.15;;;1.67;;
71715;SDS011;59568;52.128;5.434;2022-09-09T15:21:35;2.83;;;0.90;;
71715;SDS011;59568;52.128;5.434;2022-09-09T15:24:03;4.23;;;0.97;;
71715;SDS011;59568;52.128;5.434;2022-09-09T15:26:30;3.40;;;0.93;;
71715;SDS011;59568;52.128;5.434;2022-09-09T15:28:58;5.28;;;1.02;;
71715;SDS011;59568;52.128;5.434;2022-09-09T15:31:27;2.80;;;0.73;;
71715;SDS011;59568;52.128;5.434;2022-09-09T15:33:57;3.97;;;0.65;;
71715;SDS011;59568;52.128;5.434;2022-09-09T15:36:32;1.30;;;0.57;;
71715;SDS011;59568;52.128;5.434;2022-09-09T15:39:15;3.00;;;1.00;;
71715;SDS011;59568;52.128;5.434;2022-09-09T15:41:44;3.08;;;1.00;;
71715;SDS011;59568;52.128;5.434;2022-09-09T15:44:13;2.20;;;0.60;;
71715;SDS011;59568;52.128;5.434;2022-09-09T15:46:42;2.72;;;0.63;;
71715;SDS011;59568;52.128;5.434;2022-09-09T15:49:12;4.13;;;1.00;;
71715;SDS011;59568;52.128;5.434;2022-09-09T15:51:50;3.58;;;1.00;;
71715;SDS011;59568;52.128;5.434;2022-09-09T15:54:19;3.00;;;0.70;;
71715;SDS011;59568;52.128;5.434;2022-09-09T15:56:59;2.33;;;0.80;;
71715;SDS011;59568;52.128;5.434;2022-09-09T15:59:28;2.85;;;0.98;;
71715;SDS011;59568;52.128;5.434;2022-09-09T16:01:56;2.80;;;0.60;;
71715;SDS011;59568;52.128;5.434;2022-09-09T16:04:26;2.47;;;0.70;;
71715;SDS011;59568;52.128;5.434;2022-09-09T16:06:56;3.20;;;0.90;;
71715;SDS011;59568;52.128;5.434;2022-09-09T16:09:26;3.53;;;0.70;;
71715;SDS011;59568;52.128;5.434;2022-09-09T16:11:58;2.65;;;0.75;;
71715;SDS011;59568;52.128;5.434;2022-09-09T16:14:27;2.47;;;1.03;;
71715;SDS011;59568;52.128;5.434;2022-09-09T16:16:55;3.10;;;0.80;;
71715;SDS011;59568;52.128;5.434;2022-09-09T16:19:23;3.85;;;0.77;;
71715;SDS011;59568;52.128;5.434;2022-09-09T16:21:49;2.25;;;0.88;;
71715;SDS011;59568;52.128;5.434;2022-09-09T16:24:17;2.05;;;0.90;;
71715;SDS011;59568;52.128;5.434;2022-09-09T16:26:46;1.73;;;0.40;;
71715;SDS011;59568;52.128;5.434;2022-09-09T16:29:15;2.17;;;0.57;;
71715;SDS011;59568;52.128;5.434;2022-09-09T16:31:44;2.40;;;0.60;;
71715;SDS011;59568;52.128;5.434;2022-09-09T16:34:13;2.05;;;0.57;;
71715;SDS011;59568;52.128;5.434;2022-09-09T16:36:41;1.77;;;0.85;;
71715;SDS011;59568;52.128;5.434;2022-09-09T16:39:12;2.83;;;0.70;;
71715;SDS011;59568;52.128;5.434;2022-09-09T16:41:42;1.45;;;0.43;;
71715;SDS011;59568;52.128;5.434;2022-09-09T16:44:10;4.10;;;0.77;;
71715;SDS011;59568;52.128;5.434;2022-09-09T16:46:40;2.60;;;0.70;;
71715;SDS011;59568;52.128;5.434;2022-09-09T16:49:09;4.20;;;0.80;;
71715;SDS011;59568;52.128;5.434;2022-09-09T16:51:48;2.60;;;0.80;;
71715;SDS011;59568;52.128;5.434;2022-09-09T16:54:19;2.30;;;0.60;;
71715;SDS011;59568;52.128;5.434;2022-09-09T16:56:47;2.90;;;0.65;;
71715;SDS011;59568;52.128;5.434;2022-09-09T16:59:15;2.67;;;0.80;;
71715;SDS011;59568;52.128;5.434;2022-09-09T17:01:45;3.20;;;0.90;;
71715;SDS011;59568;52.128;5.434;2022-09-09T17:04:14;1.57;;;0.73;;
71715;SDS011;59568;52.128;5.434;2022-09-09T17:06:47;2.60;;;0.80;;
71715;SDS011;59568;52.128;5.434;2022-09-09T17:09:19;2.42;;;1.00;;
71715;SDS011;59568;52.128;5.434;2022-09-09T17:11:47;2.08;;;0.80;;
71715;SDS011;59568;52.128;5.434;2022-09-09T17:14:17;1.42;;;0.60;;